Time;durP1;ratioP1;P1;durP2;ratioP2;P2;SDS_P1;SDS_P2;PMS_P1;PMS_P2;Temp;Humidity;BMP_temperature;BMP_pressure;BME280_temperature;BME280_humidity;BME280_pressure;Samples;Min_cycle;Max_cycle;Signal;HPM_P1;HPM_P2
2022/09/20 00:01:21;;;;;;;3.77;3.37;;;16.20;64.70;;;;;;5023622;28;20436;-52
2022/09/20 00:03:50;;;;;;;6.90;3.27;;;16.20;64.60;;;;;;5027928;28;20656;-49
2022/09/20 00:06:21;;;;;;;3.70;3.20;;;16.20;64.50;;;;;;5026460;28;20505;-51
2022/09/20 00:08:47;;;;;;;4.40;2.80;;;16.20;64.60;;;;;;5031867;28;20983;-50
2022/09/20 00:11:17;;;;;;;5.87;3.27;;;16.20;64.50;;;;;;5028263;28;20440;-51
2022/09/20 00:13:44;;;;;;;3.73;3.07;;;16.20;64.50;;;;;;5027756;28;20494;-50
2022/09/20 00:16:17;;;;;;;3.30;3.00;;;16.20;64.30;;;;;;5030790;28;20506;-51
2022/09/20 00:18:42;;;;;;;3.30;3.00;;;16.20;64.30;;;;;;5022915;28;20451;-52
2022/09/20 00:21:16;;;;;;;4.47;3.10;;;16.20;64.30;;;;;;5022821;28;20439;-51
2022/09/20 00:23:41;;;;;;;4.90;3.00;;;16.20;64.40;;;;;;5030186;28;20604;-50
2022/09/20 00:26:07;;;;;;;3.20;2.90;;;16.20;64.40;;;;;;5023673;28;20435;-51
2022/09/20 00:28:33;;;;;;;3.80;2.73;;;16.20;64.10;;;;;;5022732;28;20273;-51
2022/09/20 00:30:59;;;;;;;3.43;2.70;;;16.20;64.30;;;;;;5024883;28;20243;-52
2022/09/20 00:35:06;;;;;;;3.17;2.97;;;16.20;64.10;;;;;;5022331;28;20558;-52
2022/09/20 00:36:15;;;;;;;2.90;2.60;;;16.20;64.00;;;;;;5026271;28;20448;-51
2022/09/20 00:38:41;;;;;;;4.37;2.83;;;16.10;63.70;;;;;;5030016;28;20995;-51
2022/09/20 00:41:07;;;;;;;4.97;3.10;;;16.10;63.80;;;;;;5030917;28;20808;-49
2022/09/20 00:43:44;;;;;;;3.40;2.97;;;16.10;63.80;;;;;;5025882;28;20436;-47
2022/09/20 00:46:42;;;;;;;4.07;2.80;;;16.10;63.80;;;;;;5025637;28;20193;-47
2022/09/20 00:49:20;;;;;;;3.20;2.67;;;16.10;63.70;;;;;;5007555;28;20947;-53
2022/09/20 00:51:55;;;;;;;2.57;2.37;;;16.10;63.70;;;;;;5028419;28;20443;-50
2022/09/20 00:54:22;;;;;;;3.20;2.60;;;16.10;63.50;;;;;;5030517;28;20483;-51
2022/09/20 00:56:48;;;;;;;2.70;2.40;;;16.10;63.40;;;;;;5027687;28;20519;-49
2022/09/20 00:59:25;;;;;;;3.67;3.37;;;16.10;63.50;;;;;;5024196;28;20582;-51
2022/09/20 01:01:55;;;;;;;2.77;2.57;;;16.10;63.60;;;;;;5022153;28;20444;-49
2022/09/20 01:04:25;;;;;;;3.97;2.53;;;16.10;63.50;;;;;;5020193;28;20803;-52
2022/09/20 01:06:55;;;;;;;3.03;2.67;;;16.00;63.50;;;;;;5026448;28;20515;-47
2022/09/20 01:09:20;;;;;;;4.70;4.20;;;16.00;63.60;;;;;;5021437;28;20463;-49
2022/09/20 01:11:48;;;;;;;6.40;2.90;;;16.00;63.80;;;;;;5024316;28;20436;-50
2022/09/20 01:14:15;;;;;;;3.80;3.23;;;16.00;63.80;;;;;;5027516;28;20221;-49
2022/09/20 01:16:41;;;;;;;4.50;3.07;;;16.00;63.80;;;;;;5019556;28;20460;-47
2022/09/20 01:19:28;;;;;;;3.47;2.60;;;16.00;63.90;;;;;;5025510;28;20444;-49
2022/09/20 01:21:54;;;;;;;3.83;2.87;;;15.90;64.00;;;;;;5025033;28;20217;-48
2022/09/20 01:24:37;;;;;;;3.27;2.97;;;15.90;63.90;;;;;;5028721;28;20440;-48
2022/09/20 01:27:09;;;;;;;4.13;2.80;;;16.00;64.00;;;;;;5025890;28;20455;-52
2022/09/20 01:29:40;;;;;;;3.90;2.53;;;16.00;64.10;;;;;;5021747;28;20451;-50
2022/09/20 01:32:12;;;;;;;2.60;2.40;;;16.00;64.30;;;;;;5026948;28;20515;-48
2022/09/20 01:34:46;;;;;;;4.90;3.00;;;16.00;64.40;;;;;;5029040;28;20491;-50
2022/09/20 01:37:24;;;;;;;3.67;2.77;;;16.00;64.40;;;;;;5024956;28;21031;-48
2022/09/20 01:40:09;;;;;;;4.00;2.70;;;16.00;64.40;;;;;;5028704;28;20472;-51
2022/09/20 01:42:47;;;;;;;4.40;2.90;;;16.00;64.50;;;;;;5021602;28;20456;-50
2022/09/20 01:45:27;;;;;;;3.30;3.00;;;15.90;64.50;;;;;;5025030;28;21051;-49
2022/09/20 01:48:02;;;;;;;7.87;3.67;;;15.80;65.20;;;;;;5023653;28;20459;-49
2022/09/20 01:50:45;;;;;;;4.37;3.20;;;15.70;65.50;;;;;;5022313;28;20450;-49
2022/09/20 01:53:13;;;;;;;4.50;3.13;;;15.80;65.50;;;;;;5027403;28;20494;-53
2022/09/20 01:56:09;;;;;;;5.03;2.80;;;15.80;65.30;;;;;;5021525;28;20463;-47
2022/09/20 01:58:55;;;;;;;8.30;3.70;;;15.80;65.10;;;;;;5029344;28;20450;-51
2022/09/20 02:01:40;;;;;;;4.83;3.70;;;15.80;65.70;;;;;;5027903;28;20514;-49
2022/09/20 02:04:27;;;;;;;5.13;3.97;;;15.80;65.00;;;;;;5022074;28;21269;-50
2022/09/20 02:07:21;;;;;;;6.17;3.47;;;15.80;65.00;;;;;;5022584;28;20472;-51
2022/09/20 02:10:07;;;;;;;5.20;3.20;;;15.90;64.90;;;;;;5021026;28;20528;-51
2022/09/20 02:12:53;;;;;;;3.90;3.50;;;15.90;64.90;;;;;;4993340;28;20522;-51
2022/09/20 02:15:56;;;;;;;4.10;3.70;;;15.90;64.80;;;;;;5025026;28;20456;-50
2022/09/20 02:18:27;;;;;;;5.30;3.50;;;15.90;64.60;;;;;;5016948;28;20832;-47
2022/09/20 02:21:04;;;;;;;4.10;3.70;;;15.90;64.50;;;;;;5023846;28;20818;-49
2022/09/20 02:23:55;;;;;;;4.60;3.73;;;15.90;64.40;;;;;;5023007;28;20444;-49
2022/09/20 02:27:01;;;;;;;4.07;3.30;;;15.90;64.40;;;;;;5026058;28;20539;-47
2022/09/20 02:29:42;;;;;;;4.43;3.30;;;16.00;64.50;;;;;;5024181;28;20475;-47
2022/09/20 02:32:49;;;;;;;5.23;3.33;;;16.00;64.50;;;;;;5019071;28;20570;-52
2022/09/20 02:35:42;;;;;;;8.53;3.50;;;16.00;64.60;;;;;;5024962;28;20464;-52
2022/09/20 02:38:16;;;;;;;3.80;3.50;;;16.00;64.60;;;;;;4992602;28;20459;-50
2022/09/20 02:40:51;;;;;;;4.60;3.40;;;16.00;64.40;;;;;;5024802;28;21220;-48
2022/09/20 02:43:37;;;;;;;3.70;3.40;;;16.00;64.50;;;;;;5027829;28;20440;-51
2022/09/20 02:46:24;;;;;;;7.37;3.77;;;16.00;65.30;;;;;;5021713;28;20486;-50
2022/09/20 02:48:57;;;;;;;4.53;3.20;;;16.00;64.80;;;;;;5028855;28;20436;-50
2022/09/20 02:51:34;;;;;;;3.20;2.90;;;16.00;64.90;;;;;;5027505;28;20451;-50
2022/09/20 02:54:20;;;;;;;4.20;3.33;;;16.00;64.80;;;;;;5028533;28;20479;-52
2022/09/20 02:57:18;;;;;;;4.80;3.60;;;16.00;64.70;;;;;;5022619;28;20809;-51
2022/09/20 02:59:54;;;;;;;4.23;3.10;;;16.00;64.80;;;;;;5020751;28;20463;-51
2022/09/20 03:02:29;;;;;;;5.27;3.97;;;16.00;64.70;;;;;;5025555;28;20455;-47
2022/09/20 03:05:08;;;;;;;5.27;3.73;;;16.00;64.50;;;;;;5029108;28;20506;-50
2022/09/20 03:08:12;;;;;;;7.53;3.73;;;16.00;64.60;;;;;;5024034;28;20974;-49
2022/09/20 03:10:55;;;;;;;4.97;3.93;;;16.00;64.50;;;;;;5018441;28;20447;-47
2022/09/20 03:13:49;;;;;;;4.13;3.73;;;16.00;64.40;;;;;;5019355;28;20552;-51
2022/09/20 03:16:38;;;;;;;6.93;3.90;;;16.00;64.50;;;;;;5027311;28;20502;-49
2022/09/20 03:19:46;;;;;;;3.90;3.50;;;16.00;64.40;;;;;;5016971;28;20526;-48
2022/09/20 03:22:18;;;;;;;5.80;4.00;;;16.00;64.40;;;;;;5025876;28;20527;-47
2022/09/20 03:25:13;;;;;;;4.47;4.07;;;16.00;64.50;;;;;;5025748;28;20480;-48
2022/09/20 03:27:42;;;;;;;8.03;5.10;;;15.90;64.70;;;;;;5024368;28;20455;-48
2022/09/20 03:30:33;;;;;;;4.10;3.70;;;15.90;64.60;;;;;;5023200;28;20531;-48
2022/09/20 03:33:08;;;;;;;4.20;3.33;;;15.90;64.80;;;;;;5022068;28;20490;-51
2022/09/20 03:35:34;;;;;;;3.77;3.40;;;15.90;64.90;;;;;;5023810;28;20432;-49
2022/09/20 03:38:27;;;;;;;3.90;3.10;;;15.90;64.90;;;;;;5030473;28;20459;-50
2022/09/20 03:41:19;;;;;;;4.00;3.53;;;15.90;64.90;;;;;;5023680;28;20216;-51
2022/09/20 03:44:07;;;;;;;5.67;3.70;;;16.00;64.70;;;;;;5028382;28;20562;-52
2022/09/20 03:46:48;;;;;;;3.73;3.20;;;15.90;64.60;;;;;;5032448;28;20459;-51
2022/09/20 03:49:25;;;;;;;5.67;3.27;;;15.90;65.00;;;;;;5028202;28;20447;-48
2022/09/20 03:52:20;;;;;;;6.13;3.80;;;15.90;65.00;;;;;;5027487;28;20447;-51
2022/09/20 03:55:02;;;;;;;7.50;3.73;;;15.90;64.90;;;;;;5029066;28;20558;-49
2022/09/20 03:57:51;;;;;;;4.13;3.57;;;15.90;64.90;;;;;;5025714;28;20931;-50
2022/09/20 04:00:30;;;;;;;3.70;3.20;;;15.90;64.90;;;;;;5025770;28;20471;-52
2022/09/20 04:03:02;;;;;;;4.03;3.00;;;15.90;65.10;;;;;;5022035;28;20529;-49
2022/09/20 04:05:49;;;;;;;9.03;3.30;;;15.90;65.20;;;;;;5020706;28;20448;-48
2022/09/20 04:08:36;;;;;;;4.93;3.07;;;15.90;65.10;;;;;;5022831;28;20448;-47
2022/09/20 04:11:30;;;;;;;4.90;3.10;;;15.90;65.10;;;;;;5029251;28;20460;-47
2022/09/20 04:14:25;;;;;;;4.73;3.67;;;15.90;65.20;;;;;;5020148;28;20526;-49
2022/09/20 04:17:05;;;;;;;5.20;3.30;;;15.90;65.10;;;;;;5005303;28;20522;-52
2022/09/20 04:19:40;;;;;;;4.40;2.90;;;16.00;65.00;;;;;;5026899;28;20541;-47
2022/09/20 04:22:07;;;;;;;5.00;3.40;;;16.00;64.80;;;;;;5028423;28;20451;-48
2022/09/20 04:25:04;;;;;;;4.10;3.77;;;16.00;64.80;;;;;;5031942;28;20551;-46
2022/09/20 04:27:40;;;;;;;5.20;3.03;;;16.00;64.80;;;;;;5027552;28;20526;-47
2022/09/20 04:30:29;;;;;;;3.43;3.10;;;16.00;65.00;;;;;;5026413;28;20463;-48
2022/09/20 04:33:25;;;;;;;10.43;3.13;;;16.00;65.30;;;;;;5028625;28;20487;-49
2022/09/20 04:36:29;;;;;;;2.97;2.67;;;16.00;65.30;;;;;;5029002;28;20452;-47
2022/09/20 04:39:25;;;;;;;5.23;2.90;;;16.00;64.90;;;;;;4963304;28;20541;-47
2022/09/20 04:42:29;;;;;;;4.57;3.23;;;16.00;64.40;;;;;;4962844;28;20482;-48
2022/09/20 04:45:08;;;;;;;5.37;2.87;;;15.90;63.60;;;;;;4991913;28;20486;-47
2022/09/20 04:48:21;;;;;;;6.27;3.10;;;15.90;62.70;;;;;;5031209;28;20451;-46
2022/09/20 04:51:20;;;;;;;4.53;3.20;;;15.90;63.00;;;;;;4947598;28;20453;-48
2022/09/20 04:54:13;;;;;;;5.57;3.17;;;15.90;63.30;;;;;;5019586;28;20906;-46
2022/09/20 04:56:55;;;;;;;4.07;2.43;;;15.90;63.00;;;;;;5025689;28;20505;-51
2022/09/20 04:59:45;;;;;;;6.17;3.13;;;16.00;63.20;;;;;;5027229;28;20443;-47
2022/09/20 05:02:23;;;;;;;7.47;2.97;;;16.00;63.20;;;;;;5028041;28;20538;-48
2022/09/20 05:05:13;;;;;;;7.83;2.83;;;16.00;63.40;;;;;;5030538;28;20448;-47
2022/09/20 05:08:05;;;;;;;4.37;3.57;;;16.00;63.30;;;;;;5023935;28;20542;-50
2022/09/20 05:10:43;;;;;;;5.67;3.30;;;16.00;63.20;;;;;;5020690;28;20467;-47
2022/09/20 05:13:22;;;;;;;7.63;2.70;;;16.00;63.30;;;;;;5028330;28;20554;-47
2022/09/20 05:15:57;;;;;;;7.47;2.73;;;16.10;63.90;;;;;;5026491;28;20530;-49
2022/09/20 05:18:50;;;;;;;4.23;2.60;;;16.20;65.40;;;;;;5025547;28;20447;-47
2022/09/20 05:21:46;;;;;;;6.70;2.60;;;16.40;65.10;;;;;;5016308;28;20455;-49
2022/09/20 05:24:51;;;;;;;3.07;2.43;;;16.50;64.10;;;;;;5024417;28;20502;-50
2022/09/20 05:27:39;;;;;;;3.00;2.23;;;16.70;63.00;;;;;;4983106;28;20451;-47
2022/09/20 05:30:18;;;;;;;3.13;2.23;;;16.70;61.00;;;;;;5029280;28;20533;-49
2022/09/20 05:32:49;;;;;;;3.73;2.20;;;16.70;60.80;;;;;;5022167;28;20485;-51
2022/09/20 05:35:27;;;;;;;7.57;2.60;;;16.80;60.30;;;;;;5018506;28;20484;-46
2022/09/20 05:38:22;;;;;;;3.20;2.50;;;16.80;59.70;;;;;;5023080;28;20451;-47
2022/09/20 05:40:59;;;;;;;5.00;2.97;;;16.80;59.80;;;;;;5011297;28;21495;-47
2022/09/20 05:43:34;;;;;;;5.77;2.83;;;16.90;59.70;;;;;;5019173;28;20530;-46
2022/09/20 05:46:31;;;;;;;3.93;2.80;;;16.90;59.50;;;;;;5022081;28;20439;-48
2022/09/20 05:49:03;;;;;;;5.23;2.50;;;16.90;58.90;;;;;;5026752;28;20444;-47
2022/09/20 05:52:11;;;;;;;6.17;3.27;;;16.90;59.20;;;;;;5021725;28;20436;-47
2022/09/20 05:54:50;;;;;;;4.97;2.63;;;16.90;59.20;;;;;;4975178;28;20979;-47
2022/09/20 05:57:36;;;;;;;2.90;2.53;;;16.90;59.10;;;;;;5024551;28;20510;-51
2022/09/20 06:00:15;;;;;;;6.27;4.00;;;16.80;58.90;;;;;;5020733;28;20459;-47
2022/09/20 06:03:14;;;;;;;4.30;2.87;;;16.70;59.00;;;;;;5021025;28;20449;-48
2022/09/20 06:06:20;;;;;;;13.07;6.83;;;16.70;59.40;;;;;;5009336;28;20526;-48
2022/09/20 06:09:23;;;;;;;3.30;3.00;;;16.70;59.50;;;;;;5019483;28;20877;-48
2022/09/20 06:12:13;;;;;;;18.23;12.73;;;16.70;59.80;;;;;;5024776;28;20454;-47
2022/09/20 06:15:10;;;;;;;10.63;9.10;;;16.60;60.60;;;;;;5022862;28;21357;-47
2022/09/20 06:17:47;;;;;;;6.13;3.27;;;16.50;60.00;;;;;;5022968;28;20467;-47
2022/09/20 06:20:35;;;;;;;38.37;29.57;;;16.50;60.40;;;;;;5021038;28;20506;-49
2022/09/20 06:23:03;;;;;;;24.07;21.67;;;16.50;60.40;;;;;;5020722;28;20809;-47
2022/09/20 06:25:46;;;;;;;11.33;6.10;;;16.60;60.60;;;;;;5028451;28;20494;-47
2022/09/20 06:28:15;;;;;;;9.27;5.00;;;16.50;61.00;;;;;;5028890;28;20541;-47
2022/09/20 06:30:48;;;;;;;10.60;7.20;;;16.60;60.00;;;;;;5025666;28;20472;-48
2022/09/20 06:33:17;;;;;;;12.73;8.60;;;16.70;60.10;;;;;;5029918;28;21376;-49
2022/09/20 06:35:48;;;;;;;9.03;7.20;;;16.80;60.00;;;;;;5028013;28;20498;-50
2022/09/20 06:41:33;;;;;;;7.20;5.70;;;16.90;59.70;;;;;;5022911;28;20474;-47
2022/09/20 06:44:00;;;;;;;29.00;19.63;;;17.00;59.20;;;;;;5031432;28;20459;-47
2022/09/20 06:46:30;;;;;;;9.97;5.33;;;17.00;58.70;;;;;;5029525;28;20498;-47
2022/09/20 06:48:56;;;;;;;15.33;9.93;;;17.10;58.50;;;;;;5020367;28;20441;-49
2022/09/20 06:51:25;;;;;;;6.27;4.70;;;17.10;58.10;;;;;;5028458;28;20508;-47
2022/09/20 06:53:52;;;;;;;7.93;4.77;;;17.20;58.00;;;;;;5030412;28;20541;-47
2022/09/20 06:56:22;;;;;;;16.93;15.20;;;17.10;57.70;;;;;;5029662;28;20444;-50
2022/09/20 06:58:47;;;;;;;12.27;6.40;;;17.00;57.70;;;;;;5026379;28;20526;-50
2022/09/20 07:01:13;;;;;;;6.40;4.00;;;16.90;58.00;;;;;;5025152;28;20523;-47
2022/09/20 07:03:40;;;;;;;4.50;3.10;;;16.90;58.10;;;;;;5023237;28;20554;-48
2022/09/20 07:06:06;;;;;;;10.27;3.37;;;16.90;57.90;;;;;;5026082;28;20494;-48
2022/09/20 07:08:32;;;;;;;6.07;3.17;;;16.90;58.20;;;;;;5025851;28;20476;-50
2022/09/20 07:11:03;;;;;;;6.70;3.37;;;16.90;58.30;;;;;;5026531;28;20192;-47
2022/09/20 07:13:29;;;;;;;4.00;2.43;;;17.00;58.40;;;;;;5029745;28;20221;-50
2022/09/20 07:16:02;;;;;;;7.50;2.60;;;17.00;58.40;;;;;;5026590;28;20448;-47
2022/09/20 07:18:28;;;;;;;5.87;2.60;;;17.20;58.50;;;;;;5019521;28;20255;-48
2022/09/20 07:20:57;;;;;;;6.20;3.17;;;17.30;58.10;;;;;;5025364;28;20448;-47
2022/09/20 07:23:27;;;;;;;4.73;3.47;;;17.20;58.00;;;;;;5024701;28;20679;-48
2022/09/20 07:25:53;;;;;;;5.97;3.50;;;17.30;58.10;;;;;;5025290;28;20464;-48
2022/09/20 07:28:19;;;;;;;11.43;3.77;;;17.20;57.90;;;;;;5030465;28;20451;-47
2022/09/20 07:30:46;;;;;;;6.03;4.23;;;17.30;58.10;;;;;;5025776;28;20436;-46
2022/09/20 07:33:18;;;;;;;8.20;3.80;;;17.40;58.10;;;;;;5030420;28;20880;-47
2022/09/20 07:35:45;;;;;;;3.73;3.30;;;17.50;58.00;;;;;;5028002;28;20832;-47
2022/09/20 07:38:11;;;;;;;8.67;4.40;;;17.40;57.60;;;;;;5023639;28;20428;-47
2022/09/20 07:40:36;;;;;;;6.83;5.60;;;17.50;57.70;;;;;;5024648;28;20448;-49
2022/09/20 07:43:02;;;;;;;7.73;3.57;;;17.50;57.40;;;;;;5025025;28;20492;-50
2022/09/20 07:45:28;;;;;;;11.00;4.10;;;17.60;57.90;;;;;;5027009;28;20201;-49
2022/09/20 07:47:55;;;;;;;6.33;3.80;;;17.60;57.40;;;;;;5025519;28;20276;-49
2022/09/20 07:50:21;;;;;;;5.87;3.33;;;17.70;57.40;;;;;;5017962;28;20439;-47
2022/09/20 07:52:47;;;;;;;6.90;3.53;;;17.70;57.60;;;;;;5030235;28;20840;-47
2022/09/20 07:55:12;;;;;;;4.93;3.33;;;17.90;58.00;;;;;;5030220;28;20667;-47
2022/09/20 07:57:38;;;;;;;5.27;4.07;;;18.00;57.30;;;;;;5028522;28;20597;-47
2022/09/20 08:00:07;;;;;;;6.87;3.83;;;18.10;56.70;;;;;;5014522;28;20190;-57
2022/09/20 08:02:32;;;;;;;8.13;4.07;;;18.20;56.70;;;;;;5023191;28;20193;-49
2022/09/20 08:04:58;;;;;;;7.40;4.27;;;18.20;56.60;;;;;;5030595;28;20503;-49
2022/09/20 08:07:23;;;;;;;10.10;3.60;;;18.30;57.70;;;;;;5029927;28;20197;-47
2022/09/20 08:09:49;;;;;;;6.80;3.90;;;18.50;57.30;;;;;;5027727;28;20223;-50
2022/09/20 08:12:16;;;;;;;6.90;3.80;;;18.60;56.70;;;;;;5019898;28;20321;-49
2022/09/20 08:14:41;;;;;;;8.30;3.50;;;18.70;56.80;;;;;;5024374;28;20312;-49
2022/09/20 08:17:09;;;;;;;10.23;3.00;;;18.90;56.70;;;;;;5018222;28;20859;-49
2022/09/20 08:19:36;;;;;;;5.30;2.43;;;19.20;54.20;;;;;;5017442;28;20221;-48
2022/09/20 08:22:01;;;;;;;9.10;3.30;;;19.40;53.00;;;;;;5027728;28;20446;-49
2022/09/20 08:24:27;;;;;;;6.30;2.70;;;19.40;52.90;;;;;;5033541;28;20420;-50
2022/09/20 08:26:52;;;;;;;5.50;2.70;;;19.60;53.20;;;;;;5033510;28;20185;-49
2022/09/20 08:29:18;;;;;;;7.33;2.73;;;19.40;52.20;;;;;;5033815;28;20653;-47
2022/09/20 08:31:43;;;;;;;5.53;3.17;;;19.40;52.20;;;;;;5031817;28;20197;-48
2022/09/20 08:34:11;;;;;;;5.70;2.80;;;19.10;52.10;;;;;;5028303;28;20300;-50
2022/09/20 08:36:43;;;;;;;5.03;3.07;;;19.20;52.30;;;;;;5024544;28;20194;-47
2022/09/20 08:39:08;;;;;;;6.60;3.00;;;19.20;52.60;;;;;;5033568;28;20657;-49
2022/09/20 08:41:57;;;;;;;4.70;3.00;;;19.20;53.30;;;;;;5031342;28;20439;-48
2022/09/20 08:44:31;;;;;;;5.17;1.93;;;19.30;53.70;;;;;;5022428;28;20433;-48
2022/09/20 08:47:16;;;;;;;5.73;1.83;;;19.40;52.70;;;;;;5031476;28;20460;-47
2022/09/20 08:49:42;;;;;;;6.23;2.20;;;19.60;51.10;;;;;;5031647;28;20855;-47
2022/09/20 08:52:16;;;;;;;4.73;3.30;;;19.70;51.70;;;;;;5022770;28;20444;-49
2022/09/20 08:54:42;;;;;;;2.50;2.10;;;20.00;52.20;;;;;;5027406;28;20479;-48
2022/09/20 08:57:16;;;;;;;7.20;2.40;;;20.20;49.10;;;;;;5032366;28;20467;-47
2022/09/20 08:59:42;;;;;;;4.10;2.43;;;20.30;48.20;;;;;;5032703;28;20559;-47
2022/09/20 09:02:17;;;;;;;6.47;2.97;;;20.30;48.40;;;;;;5028061;28;20440;-50
2022/09/20 09:04:44;;;;;;;5.53;2.33;;;20.30;49.10;;;;;;5023861;28;20443;-51
2022/09/20 09:07:12;;;;;;;7.30;2.93;;;20.30;49.90;;;;;;5025837;28;20467;-51
2022/09/20 09:09:45;;;;;;;5.50;3.10;;;20.30;50.00;;;;;;5028441;28;20646;-48
2022/09/20 09:12:25;;;;;;;5.67;2.30;;;20.30;49.00;;;;;;5025366;28;20493;-48
2022/09/20 09:14:59;;;;;;;4.47;1.90;;;20.20;48.80;;;;;;5016412;28;20998;-50
2022/09/20 09:17:26;;;;;;;8.73;3.30;;;20.10;48.50;;;;;;5022920;28;20452;-49
2022/09/20 09:19:57;;;;;;;8.40;4.20;;;20.10;47.90;;;;;;5027829;28;20436;-50
2022/09/20 09:22:39;;;;;;;4.10;1.73;;;20.20;47.00;;;;;;5025056;28;21042;-47
2022/09/20 09:25:09;;;;;;;5.37;2.07;;;20.20;46.30;;;;;;5030365;28;20501;-49
2022/09/20 09:27:49;;;;;;;6.30;2.23;;;20.40;47.30;;;;;;5025627;28;20432;-51
2022/09/20 09:30:21;;;;;;;4.53;1.90;;;20.40;46.60;;;;;;5031234;28;20474;-47
2022/09/20 09:32:47;;;;;;;6.73;1.97;;;20.40;45.60;;;;;;5024464;28;20503;-50
2022/09/20 09:35:30;;;;;;;5.50;2.03;;;20.50;46.00;;;;;;5024247;28;20571;-50
2022/09/20 09:38:00;;;;;;;5.50;2.20;;;20.50;46.40;;;;;;5024249;28;20201;-47
2022/09/20 09:40:30;;;;;;;2.70;2.30;;;20.40;46.70;;;;;;5022369;28;20885;-51
2022/09/20 09:43:01;;;;;;;5.67;2.20;;;20.40;46.70;;;;;;5023825;28;20834;-46
2022/09/20 09:45:27;;;;;;;2.63;1.60;;;20.40;47.30;;;;;;5030395;28;20440;-47
2022/09/20 09:47:54;;;;;;;7.60;1.83;;;20.30;45.50;;;;;;5031622;28;20451;-48
2022/09/20 09:50:29;;;;;;;9.60;2.00;;;20.30;45.40;;;;;;5027447;28;20264;-49
2022/09/20 09:53:09;;;;;;;5.23;2.20;;;20.10;45.70;;;;;;5026391;28;20435;-48
2022/09/20 09:55:56;;;;;;;5.33;1.90;;;20.00;45.30;;;;;;5019290;28;21070;-49
2022/09/20 09:58:57;;;;;;;3.63;1.50;;;20.00;45.80;;;;;;5022098;28;20436;-50
2022/09/20 10:01:45;;;;;;;6.00;2.20;;;20.00;45.30;;;;;;5022476;28;20444;-48
2022/09/20 10:04:43;;;;;;;6.13;1.90;;;20.00;45.60;;;;;;5021229;28;20530;-47
2022/09/20 10:07:15;;;;;;;3.23;2.27;;;20.00;46.00;;;;;;5027614;28;20543;-46
2022/09/20 10:10:08;;;;;;;5.00;2.10;;;19.90;45.50;;;;;;5029618;28;20452;-48
2022/09/20 10:13:30;;;;;;;5.63;1.90;;;20.10;45.70;;;;;;5030305;28;20444;-48
2022/09/20 10:16:10;;;;;;;7.03;1.83;;;19.90;44.60;;;;;;4963862;28;21036;-47
2022/09/20 10:19:01;;;;;;;3.70;1.80;;;20.20;45.20;;;;;;5020225;28;20479;-47
2022/09/20 10:21:37;;;;;;;3.30;1.80;;;20.20;43.00;;;;;;5027411;28;20445;-50
2022/09/20 10:24:12;;;;;;;2.20;1.63;;;20.30;43.10;;;;;;5028993;28;20451;-48
2022/09/20 10:27:09;;;;;;;6.13;2.80;;;20.10;43.00;;;;;;5025809;28;20439;-47
2022/09/20 10:29:41;;;;;;;5.00;2.33;;;20.00;43.80;;;;;;5031277;28;20432;-47
2022/09/20 10:32:25;;;;;;;7.70;3.50;;;19.90;43.20;;;;;;5023724;28;20544;-46
2022/09/20 10:35:07;;;;;;;4.13;2.20;;;20.10;43.70;;;;;;5012356;28;20995;-52
2022/09/20 10:38:03;;;;;;;5.37;1.80;;;20.20;44.60;;;;;;5021990;28;20449;-50
2022/09/20 10:43:40;;;;;;;1.73;1.30;;;20.30;43.00;;;;;;5020119;28;20464;-50
2022/09/20 10:46:12;;;;;;;5.07;1.50;;;20.40;43.10;;;;;;5019110;28;20519;-50
2022/09/20 10:48:51;;;;;;;8.40;1.80;;;20.60;42.30;;;;;;5028282;28;20440;-52
2022/09/20 10:51:32;;;;;;;5.60;1.63;;;20.80;42.40;;;;;;5022625;28;20440;-48
2022/09/20 10:54:25;;;;;;;6.70;2.00;;;21.00;44.20;;;;;;5027913;28;20488;-48
2022/09/20 10:57:09;;;;;;;4.13;1.87;;;21.10;41.00;;;;;;5020254;28;20437;-47
2022/09/20 10:59:56;;;;;;;4.23;1.43;;;21.20;42.60;;;;;;5019753;28;20844;-48
2022/09/20 11:03:03;;;;;;;4.90;2.10;;;21.10;41.70;;;;;;5023413;28;20959;-50
2022/09/20 11:05:32;;;;;;;4.63;1.60;;;21.30;44.30;;;;;;4981796;28;20531;-51
2022/09/20 11:08:00;;;;;;;3.60;1.80;;;21.40;45.00;;;;;;5024461;28;20990;-48
2022/09/20 11:10:35;;;;;;;8.93;1.67;;;21.60;45.80;;;;;;5021931;28;20440;-47
2022/09/20 11:13:06;;;;;;;2.50;1.90;;;21.80;45.50;;;;;;5030039;28;20446;-47
2022/09/20 11:15:38;;;;;;;5.50;1.90;;;21.90;44.90;;;;;;5022131;28;20495;-50
2022/09/20 11:18:42;;;;;;;6.93;1.83;;;22.10;43.40;;;;;;5027869;28;20514;-49
2022/09/20 11:21:18;;;;;;;8.80;1.60;;;22.00;41.40;;;;;;4947995;28;20447;-48
2022/09/20 11:23:56;;;;;;;3.10;1.70;;;21.90;41.70;;;;;;5017571;28;20510;-49
2022/09/20 11:26:45;;;;;;;5.17;2.53;;;21.60;41.10;;;;;;5024801;28;20982;-47
2022/09/20 11:29:32;;;;;;;2.57;1.40;;;21.70;40.50;;;;;;5023226;28;20455;-51
2022/09/20 11:32:07;;;;;;;3.53;1.60;;;21.80;42.40;;;;;;4991028;28;1085882;-48
2022/09/20 11:34:38;;;;;;;3.03;1.93;;;22.30;42.70;;;;;;5009861;28;20618;-48
2022/09/20 11:37:04;;;;;;;7.43;2.43;;;22.50;40.00;;;;;;5028205;28;20464;-51
2022/09/20 11:39:52;;;;;;;6.87;1.93;;;22.60;38.00;;;;;;5025453;28;20455;-50
2022/09/20 11:42:29;;;;;;;4.83;1.53;;;22.50;39.70;;;;;;5026192;28;20662;-49
2022/09/20 11:44:55;;;;;;;3.83;1.30;;;22.60;40.20;;;;;;5027939;28;20931;-48
2022/09/20 11:47:27;;;;;;;4.13;1.30;;;22.80;40.60;;;;;;5023676;28;20460;-48
2022/09/20 11:50:04;;;;;;;5.03;1.67;;;23.10;38.70;;;;;;5024172;28;20450;-50
2022/09/20 11:53:07;;;;;;;3.13;1.60;;;23.20;37.90;;;;;;5021745;28;20931;-49
2022/09/20 11:55:47;;;;;;;5.43;2.20;;;23.20;37.00;;;;;;5022538;28;20885;-48
2022/09/20 11:58:15;;;;;;;5.77;1.63;;;23.30;37.70;;;;;;5021121;28;20451;-51
2022/09/20 12:00:44;;;;;;;8.13;2.20;;;23.00;38.50;;;;;;5032324;28;20943;-51
2022/09/20 12:03:40;;;;;;;2.97;1.20;;;22.70;38.00;;;;;;5023175;28;20444;-48
2022/09/20 12:06:42;;;;;;;3.97;1.70;;;22.50;39.50;;;;;;5019607;28;20519;-51
2022/09/20 12:09:29;;;;;;;3.07;1.37;;;22.50;39.00;;;;;;4963812;28;20520;-51
2022/09/20 12:11:55;;;;;;;2.80;1.43;;;22.50;39.30;;;;;;5013381;28;20459;-49
2022/09/20 12:14:26;;;;;;;2.33;1.57;;;22.30;38.50;;;;;;5034043;28;20848;-48
2022/09/20 12:16:52;;;;;;;5.60;1.80;;;22.10;38.40;;;;;;5022967;28;20454;-49
2022/09/20 12:19:32;;;;;;;2.83;1.83;;;22.10;38.90;;;;;;5024291;28;20446;-50
2022/09/20 12:21:58;;;;;;;2.17;1.60;;;22.20;39.60;;;;;;5024086;28;20447;-50
2022/09/20 12:24:31;;;;;;;5.13;1.80;;;22.30;40.00;;;;;;5026125;28;20441;-47
2022/09/20 12:27:18;;;;;;;3.50;1.70;;;22.20;40.00;;;;;;5026026;28;20237;-49
2022/09/20 12:29:51;;;;;;;2.70;1.77;;;22.10;40.10;;;;;;4988435;28;20484;-48
2022/09/20 12:32:33;;;;;;;4.10;1.90;;;22.00;40.50;;;;;;5030346;28;21274;-48
2022/09/20 12:34:58;;;;;;;5.00;1.23;;;22.00;41.40;;;;;;5024321;28;20986;-49
2022/09/20 12:37:25;;;;;;;2.93;1.10;;;21.90;41.40;;;;;;5029843;28;20498;-49
2022/09/20 12:39:54;;;;;;;2.43;1.40;;;21.70;40.20;;;;;;5027164;28;20201;-49
2022/09/20 12:42:23;;;;;;;5.83;1.50;;;21.80;41.00;;;;;;5032142;28;20432;-48
2022/09/20 12:44:48;;;;;;;4.60;1.50;;;22.00;40.70;;;;;;5029286;28;20436;-49
2022/09/20 12:47:20;;;;;;;3.97;1.33;;;22.20;39.40;;;;;;5027639;28;20839;-52
2022/09/20 12:55:31;;;;;;;5.80;1.50;;;22.70;38.30;;;;;;5026517;28;20494;-50
2022/09/20 12:58:13;;;;;;;3.73;1.57;;;22.70;37.40;;;;;;5026224;28;20483;-49
2022/09/20 13:00:47;;;;;;;4.93;1.40;;;22.90;37.80;;;;;;5024954;28;20485;-47
2022/09/20 13:03:30;;;;;;;4.00;1.70;;;22.90;37.60;;;;;;5028985;28;20527;-47
2022/09/20 13:06:05;;;;;;;4.40;1.70;;;22.80;37.90;;;;;;5031717;28;20456;-47
2022/09/20 13:08:39;;;;;;;3.43;1.33;;;22.80;38.50;;;;;;5027559;28;21393;-48
2022/09/20 13:11:23;;;;;;;1.67;1.50;;;22.80;39.80;;;;;;5027755;28;20448;-49
2022/09/20 13:13:50;;;;;;;4.77;2.10;;;22.70;40.20;;;;;;5025408;28;20553;-48
2022/09/20 13:16:36;;;;;;;3.83;1.60;;;22.70;40.50;;;;;;5030032;28;20432;-50
2022/09/20 13:19:21;;;;;;;3.50;1.70;;;22.70;41.30;;;;;;5025213;28;20481;-47
2022/09/20 13:21:59;;;;;;;3.97;2.00;;;22.80;42.10;;;;;;5029232;28;20448;-48
2022/09/20 13:24:32;;;;;;;4.33;1.30;;;22.70;42.60;;;;;;5032187;28;20452;-48
2022/09/20 13:27:06;;;;;;;6.20;1.67;;;22.70;42.70;;;;;;5031126;28;20448;-47
2022/09/20 13:29:39;;;;;;;3.47;1.77;;;22.80;41.30;;;;;;5032625;28;20436;-47
2022/09/20 13:32:23;;;;;;;3.87;1.90;;;22.80;41.00;;;;;;5027238;28;20545;-48
2022/09/20 13:35:11;;;;;;;2.40;1.30;;;22.90;40.90;;;;;;5027925;28;20546;-49
2022/09/20 13:37:49;;;;;;;3.73;1.80;;;22.90;40.50;;;;;;5030137;28;20481;-49
2022/09/20 13:40:21;;;;;;;4.27;1.33;;;22.90;40.80;;;;;;5027862;28;20860;-47
2022/09/20 13:42:48;;;;;;;1.70;1.60;;;23.10;41.00;;;;;;5030863;28;20428;-48
2022/09/20 13:45:15;;;;;;;3.93;1.90;;;23.20;40.50;;;;;;5026562;28;20463;-47
2022/09/20 13:47:42;;;;;;;2.30;1.50;;;23.30;38.30;;;;;;5026860;28;20786;-48
2022/09/20 13:50:21;;;;;;;2.13;1.20;;;23.20;38.00;;;;;;5029332;28;20440;-49
2022/09/20 13:52:53;;;;;;;4.57;1.53;;;23.20;38.10;;;;;;5030777;28;20793;-48